createdAt,value
2023-03-11T00:00:17.211Z,1008.84
2023-03-11T00:00:35.540Z,1008.84
2023-03-11T00:01:08.999Z,1008.84
2023-03-11T00:01:42.539Z,1008.63
2023-03-11T00:02:13.655Z,1008.63
2023-03-11T00:02:45.151Z,1008.84
2023-03-11T00:03:17.499Z,1008.84
2023-03-11T00:03:48.880Z,1008.84
2023-03-11T00:04:11.527Z,1008.74
2023-03-11T00:04:33.866Z,1008.74
2023-03-11T00:05:09.153Z,1008.74
2023-03-11T00:05:41.416Z,1008.84
2023-03-11T00:06:13.356Z,1008.84
2023-03-11T00:06:45.614Z,1008.63
2023-03-11T00:07:17.033Z,1008.63
2023-03-11T00:07:49.645Z,1008.84
2023-03-11T00:08:12.624Z,1008.74
2023-03-11T00:08:35.482Z,1008.74
2023-03-11T00:09:14.215Z,1008.94
2023-03-11T00:09:36.974Z,1008.94
2023-03-11T00:10:13.473Z,1008.94
2023-03-11T00:10:45.138Z,1008.84
2023-03-11T00:11:16.774Z,1008.84
2023-03-11T00:11:49.539Z,1008.74
2023-03-11T00:12:12.077Z,1009.04
2023-03-11T00:12:34.150Z,1009.04
2023-03-11T00:13:10.431Z,1009.04
2023-03-11T00:13:44.416Z,1009.04
2023-03-11T00:14:12.832Z,1009.04
2023-03-11T00:14:44.953Z,1009.04
2023-03-11T00:15:18.389Z,1009.04
2023-03-11T00:15:49.058Z,1009.11
2023-03-11T00:16:11.904Z,1009.04
2023-03-11T00:16:34.435Z,1009.04
2023-03-11T00:17:09.002Z,1009.04
2023-03-11T00:17:40.785Z,1009.11
2023-03-11T00:18:13.021Z,1009.11
2023-03-11T00:18:44.957Z,1008.94
2023-03-11T00:19:16.919Z,1008.94
2023-03-11T00:19:48.994Z,1008.94
2023-03-11T00:20:12.091Z,1009.21
2023-03-11T00:20:34.484Z,1009.21
2023-03-11T00:21:09.224Z,1009.21
2023-03-11T00:21:40.928Z,1009.11
2023-03-11T00:22:12.936Z,1009.11
2023-03-11T00:22:45.029Z,1008.94
2023-03-11T00:23:17.173Z,1008.94
2023-03-11T00:23:49.185Z,1009.21
2023-03-11T00:24:13.668Z,1009.21
2023-03-11T00:24:34.614Z,1009.21
2023-03-11T00:25:09.073Z,1009.21
2023-03-11T00:25:40.899Z,1009.21
2023-03-11T00:26:12.781Z,1009.21
2023-03-11T00:26:45.035Z,1009.11
2023-03-11T00:27:16.889Z,1009.11
2023-03-11T00:27:48.918Z,1009.31
2023-03-11T00:28:11.620Z,1009.31
2023-03-11T00:28:34.525Z,1009.31
2023-03-11T00:29:08.735Z,1009.31
2023-03-11T00:29:40.868Z,1009.31
2023-03-11T00:30:13.157Z,1009.31
2023-03-11T00:30:44.950Z,1009.21
2023-03-11T00:31:16.891Z,1009.21
2023-03-11T00:31:48.927Z,1009.31
2023-03-11T00:32:12.113Z,1009.31
2023-03-11T00:32:34.628Z,1009.31
2023-03-11T00:33:08.808Z,1009.31
2023-03-11T00:33:40.877Z,1009.21
2023-03-11T00:34:13.010Z,1009.21
2023-03-11T00:34:45.245Z,1009.41
2023-03-11T00:35:17.011Z,1009.41
2023-03-11T00:35:48.814Z,1009.41
2023-03-11T00:36:11.529Z,1009.62
2023-03-11T00:36:33.999Z,1009.62
2023-03-11T00:37:08.821Z,1009.62
2023-03-11T00:37:41.146Z,1009.31
2023-03-11T00:38:13.099Z,1009.31
2023-03-11T00:38:45.022Z,1009.62
2023-03-11T00:39:18.413Z,1009.62
2023-03-11T00:39:48.871Z,1009.62
2023-03-11T00:40:13.110Z,1009.41
2023-03-11T00:40:35.487Z,1009.41
2023-03-11T00:41:08.931Z,1009.41
2023-03-11T00:41:40.901Z,1009.31
2023-03-11T00:42:12.830Z,1009.31
2023-03-11T00:42:45.062Z,1009.31
2023-03-11T00:43:16.820Z,1009.31
2023-03-11T00:43:48.887Z,1009.51
2023-03-11T00:44:11.708Z,1009.51
2023-03-11T00:44:34.063Z,1009.51
2023-03-11T00:45:09.021Z,1009.51
2023-03-11T00:45:40.881Z,1009.51
2023-03-11T00:46:12.986Z,1009.51
2023-03-11T00:46:45.044Z,1009.41
2023-03-11T00:47:20.400Z,1009.41
2023-03-11T00:47:48.921Z,1009.51
2023-03-11T00:48:12.205Z,1009.62
2023-03-11T00:48:34.644Z,1009.62
2023-03-11T00:49:09.189Z,1009.62
2023-03-11T00:49:40.775Z,1009.62
2023-03-11T00:50:13.592Z,1009.62
2023-03-11T00:50:44.964Z,1009.62
2023-03-11T00:51:16.909Z,1009.62
2023-03-11T00:51:48.867Z,1009.62
2023-03-11T00:52:11.454Z,1009.51
2023-03-11T00:52:33.853Z,1009.51
2023-03-11T00:53:08.951Z,1009.51
2023-03-11T00:53:41.092Z,1009.72
2023-03-11T00:54:12.944Z,1009.72
2023-03-11T00:54:45.023Z,1009.51
2023-03-11T00:55:19.718Z,1009.51
2023-03-11T00:55:48.890Z,1009.51
2023-03-11T00:56:11.725Z,1009.51
2023-03-11T00:56:34.114Z,1009.51
2023-03-11T00:57:08.874Z,1009.51
2023-03-11T00:57:40.973Z,1009.72
2023-03-11T00:58:16.365Z,1009.72
2023-03-11T00:58:45.000Z,1009.72
2023-03-11T00:59:16.978Z,1009.72
2023-03-11T00:59:48.775Z,1009.72
2023-03-11T01:00:11.727Z,1009.62
2023-03-11T01:00:34.031Z,1009.62
2023-03-11T01:01:08.826Z,1009.62
2023-03-11T01:01:41.071Z,1009.72
2023-03-11T01:02:12.957Z,1009.72
2023-03-11T01:02:45.155Z,1009.72
2023-03-11T01:03:16.789Z,1009.72
2023-03-11T01:03:48.823Z,1009.72
2023-03-11T01:04:11.599Z,1009.72
2023-03-11T01:04:34.125Z,1009.72
2023-03-11T01:05:09.171Z,1009.72
2023-03-11T01:05:41.060Z,1010.02
2023-03-11T01:06:12.918Z,1010.02
2023-03-11T01:06:45.972Z,1009.92
2023-03-11T01:07:17.074Z,1009.92
2023-03-11T01:07:48.791Z,1009.92
2023-03-11T01:08:11.546Z,1009.82
2023-03-11T01:08:33.863Z,1009.82
2023-03-11T01:09:09.055Z,1009.82
2023-03-11T01:09:42.354Z,1010.02
2023-03-11T01:10:09.867Z,1010.02
2023-03-11T01:10:45.286Z,1010.12
2023-03-11T01:11:18.130Z,1010.12
2023-03-11T01:11:48.931Z,1009.92
2023-03-11T01:12:11.501Z,1010.02
2023-03-11T01:12:34.272Z,1010.02
2023-03-11T01:13:08.952Z,1010.02
2023-03-11T01:13:42.089Z,1010.02
2023-03-11T01:14:12.885Z,1010.02
2023-03-11T01:14:45.151Z,1010.02
2023-03-11T01:15:17.199Z,1010.02
2023-03-11T01:15:49.434Z,1009.92
2023-03-11T01:16:15.608Z,1009.92
2023-03-11T01:16:34.521Z,1009.92
2023-03-11T01:17:10.024Z,1009.92
2023-03-11T01:17:41.374Z,1010.02
2023-03-11T01:18:13.001Z,1010.02
2023-03-11T01:19:01.165Z,1010.12
2023-03-11T01:19:23.595Z,1010.12
2023-03-11T01:19:46.077Z,1010.12
2023-03-11T01:20:17.584Z,1009.82
2023-03-11T01:20:53.366Z,1009.82
2023-03-11T01:21:16.058Z,1009.92
2023-03-11T01:21:38.087Z,1009.92
2023-03-11T01:22:13.003Z,1009.92
2023-03-11T01:22:44.917Z,1009.92
2023-03-11T01:23:17.022Z,1009.92
2023-03-11T01:23:48.751Z,1010.23
2023-03-11T01:24:11.684Z,1010.12
2023-03-11T01:24:33.947Z,1010.12
2023-03-11T01:25:12.376Z,1010.12
2023-03-11T01:25:41.125Z,1010.12
2023-03-11T01:26:12.856Z,1010.12
2023-03-11T01:26:45.030Z,1010.23
2023-03-11T01:27:16.850Z,1010.23
2023-03-11T01:27:48.877Z,1010.23
2023-03-11T01:28:11.929Z,1010.23
2023-03-11T01:28:34.169Z,1010.23
2023-03-11T01:29:08.740Z,1010.23
2023-03-11T01:29:40.929Z,1010.33
2023-03-11T01:30:12.973Z,1010.33
2023-03-11T01:30:45.159Z,1010.23
2023-03-11T01:31:16.827Z,1010.23
2023-03-11T01:31:48.865Z,1010.33
2023-03-11T01:32:11.990Z,1010.43
2023-03-11T01:32:34.246Z,1010.43
2023-03-11T01:33:09.403Z,1010.43
2023-03-11T01:33:40.869Z,1010.02
2023-03-11T01:34:12.907Z,1010.02
2023-03-11T01:34:45.058Z,1010.43
2023-03-11T01:35:16.803Z,1010.43
2023-03-11T01:35:48.778Z,1010.23
2023-03-11T01:36:11.883Z,1010.23
2023-03-11T01:36:34.477Z,1010.23
2023-03-11T01:37:09.107Z,1010.23
2023-03-11T01:37:40.769Z,1010.23
2023-03-11T01:38:13.364Z,1010.23
2023-03-11T01:38:44.952Z,1010.53
2023-03-11T01:39:16.832Z,1010.53
2023-03-11T01:39:48.877Z,1010.53
2023-03-11T01:40:15.323Z,1010.33
2023-03-11T01:40:35.164Z,1010.33
2023-03-11T01:41:09.823Z,1010.33
2023-03-11T01:41:40.812Z,1010.53
2023-03-11T01:42:12.878Z,1010.53
2023-03-11T01:42:45.044Z,1010.33
2023-03-11T01:43:16.882Z,1010.33
2023-03-11T01:43:48.995Z,1010.33
2023-03-11T01:44:11.697Z,1010.53
2023-03-11T01:44:34.068Z,1010.53
2023-03-11T01:45:10.278Z,1010.53
2023-03-11T01:45:40.947Z,1010.53
2023-03-11T01:46:13.196Z,1010.53
2023-03-11T01:46:45.176Z,1010.43
2023-03-11T01:47:16.970Z,1010.43
2023-03-11T01:47:49.193Z,1010.43
2023-03-11T01:48:12.067Z,1010.53
2023-03-11T01:48:34.682Z,1010.53
2023-03-11T01:49:10.842Z,1010.53
2023-03-11T01:49:40.886Z,1010.43
2023-03-11T01:50:14.251Z,1010.43
2023-03-11T01:50:45.048Z,1010.43
2023-03-11T01:51:16.879Z,1010.43
2023-03-11T01:51:48.783Z,1010.43
2023-03-11T01:52:11.724Z,1010.43
2023-03-11T01:52:33.971Z,1010.43
2023-03-11T01:53:12.730Z,1010.43
2023-03-11T01:53:40.745Z,1010.53
2023-03-11T01:54:12.954Z,1010.53
2023-03-11T01:54:45.056Z,1010.63
2023-03-11T01:55:16.962Z,1010.63
2023-03-11T01:55:48.771Z,1010.33
2023-03-11T01:56:11.920Z,1010.53
2023-03-11T01:56:34.126Z,1010.53
2023-03-11T01:57:08.883Z,1010.53
2023-03-11T01:57:41.031Z,1010.43
2023-03-11T01:58:13.355Z,1010.43
2023-03-11T01:58:45.040Z,1010.43
2023-03-11T01:59:16.924Z,1010.43
2023-03-11T01:59:48.888Z,1010.53
2023-03-11T02:00:13.092Z,1010.43
2023-03-11T02:00:34.109Z,1010.43
2023-03-11T02:01:08.885Z,1010.43
2023-03-11T02:01:42.500Z,1010.23
2023-03-11T02:02:13.181Z,1010.23
2023-03-11T02:02:45.598Z,1010.53
2023-03-11T02:03:16.808Z,1010.53
2023-03-11T02:03:45.870Z,1010.33
2023-03-11T02:04:17.717Z,1010.63
2023-03-11T02:04:52.943Z,1010.63
2023-03-11T02:05:16.837Z,1010.53
2023-03-11T02:05:39.126Z,1010.53
2023-03-11T02:06:13.756Z,1010.53
2023-03-11T02:06:47.818Z,1010.43
2023-03-11T02:07:17.043Z,1010.43
2023-03-11T02:07:48.921Z,1010.53
2023-03-11T02:08:15.169Z,1010.63
2023-03-11T02:08:34.369Z,1010.63
2023-03-11T02:09:09.174Z,1010.63
2023-03-11T02:09:40.862Z,1010.53
2023-03-11T02:10:14.793Z,1010.53
2023-03-11T02:10:46.531Z,1010.63
2023-03-11T02:11:17.038Z,1010.63
2023-03-11T02:11:48.938Z,1010.53
2023-03-11T02:12:15.036Z,1010.63
2023-03-11T02:12:35.812Z,1010.63
2023-03-11T02:13:08.977Z,1010.63
2023-03-11T02:13:40.733Z,1010.53
2023-03-11T02:14:15.213Z,1010.53
2023-03-11T02:14:44.985Z,1010.63
2023-03-11T02:15:16.855Z,1010.63
2023-03-11T02:15:48.846Z,1010.43
2023-03-11T02:16:11.485Z,1010.53
2023-03-11T02:16:33.762Z,1010.53
2023-03-11T02:17:14.570Z,1010.53
2023-03-11T02:17:40.847Z,1010.53
2023-03-11T02:18:12.749Z,1010.53
2023-03-11T02:18:45.091Z,1010.63
2023-03-11T02:19:17.270Z,1010.63
2023-03-11T02:19:49.346Z,1010.63
2023-03-11T02:20:12.376Z,1010.63
2023-03-11T02:20:34.704Z,1010.63
2023-03-11T02:21:08.824Z,1010.63
2023-03-11T02:21:40.875Z,1010.53
2023-03-11T02:22:13.079Z,1010.53
2023-03-11T02:22:44.903Z,1010.53
2023-03-11T02:23:17.399Z,1010.53
2023-03-11T02:23:48.985Z,1010.84
2023-03-11T02:24:12.185Z,1010.53
2023-03-11T02:24:34.467Z,1010.53
2023-03-11T02:25:09.129Z,1010.53
2023-03-11T02:25:40.719Z,1010.63
2023-03-11T02:26:13.230Z,1010.63
2023-03-11T02:26:44.955Z,1010.53
2023-03-11T02:27:17.560Z,1010.53
2023-03-11T02:27:48.740Z,1010.53
2023-03-11T02:28:11.918Z,1010.63
2023-03-11T02:28:33.978Z,1010.63
2023-03-11T02:29:08.863Z,1010.63
2023-03-11T02:29:40.963Z,1010.73
2023-03-11T02:30:13.418Z,1010.73
2023-03-11T02:30:44.962Z,1010.73
2023-03-11T02:31:19.855Z,1010.73
2023-03-11T02:31:48.902Z,1010.73
2023-03-11T02:32:12.047Z,1010.53
2023-03-11T02:32:34.078Z,1010.53
2023-03-11T02:33:08.876Z,1010.53
2023-03-11T02:33:40.764Z,1010.63
2023-03-11T02:34:12.935Z,1010.63
2023-03-11T02:34:46.416Z,1010.63
2023-03-11T02:35:11.412Z,1010.63
2023-03-11T02:35:46.150Z,1010.63
2023-03-11T02:39:17.106Z,1010.84
2023-03-11T02:39:48.453Z,1010.63
2023-03-11T02:41:15.551Z,1010.63
2023-03-11T02:41:38.258Z,1010.63
2023-03-11T02:42:14.263Z,1010.63
2023-03-11T02:42:45.029Z,1010.73
2023-03-11T02:43:19.830Z,1010.73
2023-03-11T02:43:49.627Z,1010.84
2023-03-11T02:44:12.014Z,1010.73
2023-03-11T02:44:34.669Z,1010.73
2023-03-11T02:45:09.098Z,1010.73
2023-03-11T02:45:42.514Z,1010.53
2023-03-11T02:46:12.972Z,1010.53
2023-03-11T02:46:45.182Z,1010.73
2023-03-11T02:47:16.901Z,1010.73
2023-03-11T02:47:49.091Z,1010.73
2023-03-11T02:48:11.758Z,1010.94
2023-03-11T02:48:34.669Z,1010.94
2023-03-11T02:49:11.029Z,1010.94
2023-03-11T02:49:40.927Z,1010.73
2023-03-11T02:50:16.572Z,1010.73
2023-03-11T02:50:45.140Z,1010.94
2023-03-11T02:51:17.746Z,1010.94
2023-03-11T02:51:49.030Z,1010.94
2023-03-11T02:52:11.878Z,1010.73
2023-03-11T02:52:34.324Z,1010.73
2023-03-11T02:53:09.424Z,1010.73
2023-03-11T02:53:41.780Z,1010.84
2023-03-11T02:54:12.861Z,1010.84
2023-03-11T02:54:44.960Z,1010.94
2023-03-11T02:55:16.813Z,1010.94
2023-03-11T02:55:49.342Z,1010.94
2023-03-11T02:56:12.063Z,1010.84
2023-03-11T02:56:34.462Z,1010.84
2023-03-11T02:57:10.415Z,1010.84
2023-03-11T02:57:41.080Z,1010.84
2023-03-11T02:58:13.811Z,1010.84
2023-03-11T02:58:45.157Z,1010.94
2023-03-11T02:59:17.203Z,1010.94
2023-03-11T02:59:48.752Z,1010.94
2023-03-11T03:00:34.401Z,1011.04
2023-03-11T03:01:10.623Z,1011.04
2023-03-11T03:02:10.434Z,1010.94
2023-03-11T03:02:45.115Z,1011.04
2023-03-11T03:03:16.906Z,1011.04
2023-03-11T03:03:48.909Z,1011.04
2023-03-11T03:04:12.075Z,1010.94
2023-03-11T03:04:34.581Z,1010.94
2023-03-11T03:05:08.930Z,1010.94
2023-03-11T03:05:40.979Z,1010.94
2023-03-11T03:06:12.934Z,1010.94
2023-03-11T03:06:47.416Z,1011.04
2023-03-11T03:07:17.016Z,1011.04
2023-03-11T03:07:48.921Z,1011.04
2023-03-11T03:08:13.647Z,1010.84
2023-03-11T03:08:35.955Z,1010.84
2023-03-11T03:09:08.859Z,1010.84
2023-03-11T03:09:40.723Z,1011.14
2023-03-11T03:10:15.719Z,1011.14
2023-03-11T03:10:42.290Z,1011.14
2023-03-11T03:11:17.074Z,1011.14
2023-03-11T03:11:49.229Z,1011.04
2023-03-11T03:12:11.810Z,1011.24
2023-03-11T03:12:34.944Z,1011.24
2023-03-11T03:13:09.563Z,1011.24
2023-03-11T03:13:41.245Z,1011.14
2023-03-11T03:14:16.001Z,1011.14
2023-03-11T03:14:48.208Z,1011.04
2023-03-11T03:15:10.981Z,1011.04
2023-03-11T03:15:45.902Z,1011.14
2023-03-11T03:16:17.583Z,1011.24
2023-03-11T03:16:53.098Z,1011.24
2023-03-11T03:17:16.007Z,1011.04
2023-03-11T03:17:38.193Z,1011.04
2023-03-11T03:18:12.811Z,1011.04
2023-03-11T03:18:45.344Z,1011.14
2023-03-11T03:19:16.917Z,1011.14
2023-03-11T03:19:49.120Z,1011.04
2023-03-11T03:20:15.202Z,1011.14
2023-03-11T03:20:53.978Z,1011.14
2023-03-11T03:21:17.535Z,1011.04
2023-03-11T03:21:39.971Z,1011.04
2023-03-11T03:22:12.919Z,1011.04
2023-03-11T03:22:45.623Z,1010.94
2023-03-11T03:23:17.099Z,1010.94
2023-03-11T03:23:49.534Z,1011.24
2023-03-11T03:24:11.999Z,1011.14
2023-03-11T03:24:34.205Z,1011.14
2023-03-11T03:25:12.323Z,1011.14
2023-03-11T03:25:40.918Z,1011.31
2023-03-11T03:26:12.778Z,1011.31
2023-03-11T03:26:45.595Z,1011.14
2023-03-11T03:27:17.032Z,1011.14
2023-03-11T03:27:49.204Z,1011.14
2023-03-11T03:28:13.404Z,1011.31
2023-03-11T03:28:34.293Z,1011.31
2023-03-11T03:29:09.569Z,1011.31
2023-03-11T03:29:41.690Z,1011.51
2023-03-11T03:30:14.032Z,1011.51
2023-03-11T03:30:44.896Z,1011.14
2023-03-11T03:31:17.293Z,1011.14
2023-03-11T03:31:48.803Z,1011.41
2023-03-11T03:32:11.460Z,1011.51
2023-03-11T03:32:33.923Z,1011.51
2023-03-11T03:33:10.277Z,1011.51
2023-03-11T03:33:41.469Z,1011.31
2023-03-11T03:34:13.285Z,1011.31
2023-03-11T03:34:45.748Z,1011.24
2023-03-11T03:35:16.987Z,1011.24
2023-03-11T03:35:51.555Z,1011.51
2023-03-11T03:36:11.678Z,1011.04
2023-03-11T03:36:34.142Z,1011.04
2023-03-11T03:37:09.756Z,1011.04
2023-03-11T03:37:40.956Z,1011.31
2023-03-11T03:38:12.827Z,1011.31
2023-03-11T03:38:45.354Z,1011.31
2023-03-11T03:39:18.793Z,1011.31
2023-03-11T03:39:49.210Z,1011.51
2023-03-11T03:40:12.000Z,1011.41
2023-03-11T03:40:35.398Z,1011.41
2023-03-11T03:41:09.311Z,1011.41
2023-03-11T03:41:40.957Z,1011.51
2023-03-11T03:42:12.897Z,1011.51
2023-03-11T03:42:48.635Z,1011.41
2023-03-11T03:43:16.980Z,1011.41
2023-03-11T03:43:50.021Z,1011.51
2023-03-11T03:44:12.455Z,1011.51
2023-03-11T03:44:36.759Z,1011.51
2023-03-11T03:45:09.951Z,1011.51
2023-03-11T03:45:41.164Z,1011.51
2023-03-11T03:46:13.601Z,1011.51
2023-03-11T03:46:45.049Z,1011.51
2023-03-11T03:47:17.692Z,1011.51
2023-03-11T03:47:49.525Z,1011.41
2023-03-11T03:48:12.165Z,1011.41
2023-03-11T03:48:35.461Z,1011.41
2023-03-11T03:49:10.460Z,1011.41
2023-03-11T03:49:42.481Z,1011.51
2023-03-11T03:50:14.403Z,1011.51
2023-03-11T03:50:45.443Z,1011.51
2023-03-11T03:51:17.218Z,1011.51
2023-03-11T03:51:49.147Z,1011.51
2023-03-11T03:52:11.951Z,1011.51
2023-03-11T03:52:34.328Z,1011.51
2023-03-11T03:53:08.928Z,1011.51
2023-03-11T03:53:41.682Z,1011.41
2023-03-11T03:54:14.477Z,1011.61
2023-03-11T03:54:45.057Z,1011.61
2023-03-11T03:55:17.719Z,1011.61
2023-03-11T03:55:50.128Z,1011.51
2023-03-11T03:56:12.609Z,1011.61
2023-03-11T03:56:35.602Z,1011.61
2023-03-11T03:57:17.701Z,1011.51
2023-03-11T03:57:40.458Z,1011.51
2023-03-11T03:58:13.209Z,1011.51
2023-03-11T03:58:45.098Z,1011.61
2023-03-11T03:59:17.004Z,1011.61
2023-03-11T03:59:48.808Z,1011.72
2023-03-11T04:00:11.741Z,1011.41
2023-03-11T04:00:34.031Z,1011.41
2023-03-11T04:01:08.982Z,1011.41
2023-03-11T04:01:41.033Z,1011.72
2023-03-11T04:02:12.897Z,1011.72
2023-03-11T04:02:39.083Z,1011.61
2023-03-11T04:03:18.039Z,1011.61
2023-03-11T04:03:49.625Z,1011.82
2023-03-11T04:04:12.163Z,1011.72
2023-03-11T04:04:34.752Z,1011.72
2023-03-11T04:05:10.311Z,1011.72
2023-03-11T04:05:41.406Z,1011.51
2023-03-11T04:06:13.901Z,1011.51
2023-03-11T04:06:46.490Z,1011.82
2023-03-11T04:07:24.901Z,1011.72
2023-03-11T04:07:47.785Z,1011.72
2023-03-11T04:08:18.131Z,1011.82
2023-03-11T04:08:53.195Z,1011.82
2023-03-11T04:09:15.748Z,1011.82
2023-03-11T04:09:39.420Z,1011.82
2023-03-11T04:10:12.872Z,1011.82
2023-03-11T04:10:45.296Z,1011.72
2023-03-11T04:11:19.157Z,1011.72
2023-03-11T04:11:51.635Z,1011.72
2023-03-11T04:12:12.869Z,1011.92
2023-03-11T04:12:35.407Z,1011.92
2023-03-11T04:13:09.851Z,1011.92
2023-03-11T04:13:46.109Z,1011.82
2023-03-11T04:14:14.610Z,1011.82
2023-03-11T04:14:46.338Z,1011.72
2023-03-11T04:15:17.965Z,1011.72
2023-03-11T04:15:48.877Z,1011.72
2023-03-11T04:16:11.657Z,1011.82
2023-03-11T04:16:34.571Z,1011.82
2023-03-11T04:17:08.995Z,1011.82
2023-03-11T04:17:56.869Z,1012.12
2023-03-11T04:18:19.853Z,1011.72
2023-03-11T04:18:42.125Z,1011.72
2023-03-11T04:19:17.050Z,1011.72
2023-03-11T04:19:49.093Z,1011.92
2023-03-11T04:20:12.192Z,1011.92
2023-03-11T04:20:34.715Z,1011.92
2023-03-11T04:21:09.001Z,1011.92
2023-03-11T04:21:40.768Z,1012.02
2023-03-11T04:22:12.811Z,1012.02
2023-03-11T04:22:45.025Z,1012.12
2023-03-11T04:23:16.996Z,1012.12
2023-03-11T04:23:48.783Z,1012.12
2023-03-11T04:24:12.228Z,1012.02
2023-03-11T04:24:34.498Z,1012.02
2023-03-11T04:25:10.382Z,1012.02
2023-03-11T04:25:40.995Z,1012.02
2023-03-11T04:26:13.310Z,1012.02
2023-03-11T04:26:45.050Z,1012.12
2023-03-11T04:27:16.785Z,1012.12
2023-03-11T04:27:48.937Z,1012.12
2023-03-11T04:28:12.389Z,1012.33
2023-03-11T04:28:34.912Z,1012.33
2023-03-11T04:29:08.917Z,1012.33
2023-03-11T04:29:41.053Z,1011.92
2023-03-11T04:30:12.898Z,1011.92
2023-03-11T04:30:44.959Z,1012.12
2023-03-11T04:31:17.119Z,1012.12
2023-03-11T04:31:48.817Z,1012.22
2023-03-11T04:32:11.588Z,1012.12
2023-03-11T04:32:36.368Z,1012.12
2023-03-11T04:33:08.949Z,1012.12
2023-03-11T04:33:40.830Z,1012.33
2023-03-11T04:34:12.933Z,1012.33
2023-03-11T04:34:44.858Z,1012.33
2023-03-11T04:35:16.957Z,1012.33
2023-03-11T04:35:48.984Z,1012.43
2023-03-11T04:36:11.663Z,1012.02
2023-03-11T04:36:36.235Z,1012.02
2023-03-11T04:37:08.875Z,1012.02
2023-03-11T04:37:41.417Z,1012.22
2023-03-11T04:38:13.427Z,1012.22
2023-03-11T04:38:44.867Z,1012.22
2023-03-11T04:39:16.820Z,1012.22
2023-03-11T04:39:50.380Z,1012.33
2023-03-11T04:40:12.113Z,1012.53
2023-03-11T04:40:36.812Z,1012.53
2023-03-11T04:41:08.873Z,1012.53
2023-03-11T04:41:41.043Z,1012.43
2023-03-11T04:42:12.987Z,1012.43
2023-03-11T04:42:45.024Z,1012.33
2023-03-11T04:43:16.928Z,1012.33
2023-03-11T04:43:48.937Z,1012.43
2023-03-11T04:44:12.221Z,1012.43
2023-03-11T04:44:34.703Z,1012.43
2023-03-11T04:45:08.991Z,1012.43
2023-03-11T04:45:40.908Z,1012.33
2023-03-11T04:46:13.057Z,1012.33
2023-03-11T04:46:46.416Z,1012.33
2023-03-11T04:47:16.862Z,1012.33
2023-03-11T04:47:48.876Z,1012.33
2023-03-11T04:48:11.893Z,1012.33
2023-03-11T04:48:34.640Z,1012.33
2023-03-11T04:49:09.133Z,1012.33
2023-03-11T04:49:40.924Z,1012.53
2023-03-11T04:50:13.403Z,1012.53
2023-03-11T04:50:44.792Z,1012.33
2023-03-11T04:51:17.013Z,1012.33
2023-03-11T04:51:48.884Z,1012.43
2023-03-11T04:52:11.818Z,1012.63
2023-03-11T04:52:34.195Z,1012.63
2023-03-11T04:53:08.999Z,1012.63
2023-03-11T04:53:40.900Z,1012.53
2023-03-11T04:54:12.877Z,1012.53
2023-03-11T04:54:45.068Z,1012.53
2023-03-11T04:55:18.303Z,1012.53
2023-03-11T04:55:48.841Z,1012.63
2023-03-11T04:56:11.650Z,1012.73
2023-03-11T04:56:34.000Z,1012.73
2023-03-11T04:57:08.854Z,1012.73
2023-03-11T04:57:40.901Z,1012.53
2023-03-11T04:58:13.092Z,1012.53
2023-03-11T04:58:44.987Z,1012.73
2023-03-11T04:59:16.765Z,1012.73
2023-03-11T04:59:49.024Z,1012.53
2023-03-11T05:00:13.240Z,1012.63
2023-03-11T05:00:35.555Z,1012.63
2023-03-11T05:01:08.917Z,1012.63
2023-03-11T05:01:41.146Z,1012.53
2023-03-11T05:02:13.181Z,1012.53
2023-03-11T05:02:45.350Z,1012.63
2023-03-11T05:03:17.142Z,1012.63
2023-03-11T05:03:48.833Z,1012.63
2023-03-11T05:04:12.151Z,1012.73
2023-03-11T05:04:34.483Z,1012.73
2023-03-11T05:05:08.940Z,1012.73
2023-03-11T05:05:41.266Z,1012.83
2023-03-11T05:06:12.882Z,1012.83
2023-03-11T05:06:45.049Z,1012.63
2023-03-11T05:07:16.959Z,1012.63
2023-03-11T05:07:48.854Z,1012.63
2023-03-11T05:08:12.186Z,1012.73
2023-03-11T05:08:34.448Z,1012.73
2023-03-11T05:09:08.789Z,1012.73
2023-03-11T05:09:41.873Z,1012.73
2023-03-11T05:10:13.322Z,1012.73
2023-03-11T05:10:44.976Z,1012.73
2023-03-11T05:11:16.979Z,1012.73
2023-03-11T05:11:52.435Z,1012.73
2023-03-11T05:12:14.935Z,1012.73
2023-03-11T05:12:34.830Z,1012.73
2023-03-11T05:13:08.851Z,1012.73
2023-03-11T05:13:43.672Z,1012.53
2023-03-11T05:14:12.798Z,1012.53
2023-03-11T05:14:45.173Z,1012.73
2023-03-11T05:15:16.969Z,1012.73
2023-03-11T05:15:49.213Z,1012.73
2023-03-11T05:16:12.350Z,1012.83
2023-03-11T05:16:34.699Z,1012.83
2023-03-11T05:17:08.769Z,1012.83
2023-03-11T05:17:43.378Z,1012.73
2023-03-11T05:18:13.016Z,1012.73
2023-03-11T05:18:45.808Z,1012.83
2023-03-11T05:19:16.757Z,1012.83
2023-03-11T05:19:49.016Z,1012.73
2023-03-11T05:20:12.682Z,1012.73
2023-03-11T05:20:34.295Z,1012.73
2023-03-11T05:21:09.088Z,1012.73
2023-03-11T05:21:40.778Z,1012.83
2023-03-11T05:22:12.850Z,1012.83
2023-03-11T05:22:45.603Z,1012.73
2023-03-11T05:23:17.186Z,1012.73
2023-03-11T05:23:48.798Z,1012.73
2023-03-11T05:24:12.359Z,1012.73
2023-03-11T05:24:34.317Z,1012.73
2023-03-11T05:25:09.229Z,1012.73
2023-03-11T05:25:40.824Z,1012.73
2023-03-11T05:26:16.345Z,1012.73
2023-03-11T05:26:48.074Z,1012.73
2023-03-11T05:27:17.263Z,1012.73
2023-03-11T05:27:48.903Z,1013.04
2023-03-11T05:28:12.054Z,1012.93
2023-03-11T05:28:34.169Z,1012.93
2023-03-11T05:29:08.932Z,1012.93
2023-03-11T05:29:41.530Z,1012.83
2023-03-11T05:30:12.970Z,1012.83
2023-03-11T05:30:45.861Z,1012.93
2023-03-11T05:31:17.001Z,1012.93
2023-03-11T05:31:48.823Z,1012.83
2023-03-11T05:32:11.650Z,1013.04
2023-03-11T05:32:33.873Z,1013.04
2023-03-11T05:33:09.051Z,1013.04
2023-03-11T05:33:40.986Z,1012.93
2023-03-11T05:34:12.803Z,1012.93
2023-03-11T05:34:47.900Z,1013.04
2023-03-11T05:35:17.029Z,1013.04
2023-03-11T05:35:49.136Z,1012.93
2023-03-11T05:36:11.383Z,1012.93
2023-03-11T05:36:33.860Z,1012.93
2023-03-11T05:37:09.074Z,1012.93
2023-03-11T05:37:40.819Z,1013.04
2023-03-11T05:38:12.867Z,1013.04
2023-03-11T05:38:47.699Z,1013.04
2023-03-11T05:39:16.943Z,1013.04
2023-03-11T05:39:49.007Z,1012.93
2023-03-11T05:40:12.944Z,1012.93
2023-03-11T05:40:35.304Z,1012.93
2023-03-11T05:41:09.371Z,1012.93
2023-03-11T05:41:43.401Z,1013.04
2023-03-11T05:42:12.967Z,1013.04
2023-03-11T05:42:45.257Z,1013.04
2023-03-11T05:43:16.908Z,1013.04
2023-03-11T05:43:49.399Z,1013.04
2023-03-11T05:44:11.679Z,1013.14
2023-03-11T05:44:34.039Z,1013.14
2023-03-11T05:45:09.035Z,1013.14
2023-03-11T05:45:41.215Z,1013.04
2023-03-11T05:46:13.122Z,1013.04
2023-03-11T05:46:45.806Z,1013.04
2023-03-11T05:47:16.912Z,1013.04
2023-03-11T05:47:49.401Z,1012.93
2023-03-11T05:48:14.379Z,1013.24
2023-03-11T05:48:36.894Z,1013.24
2023-03-11T05:49:08.876Z,1013.24
2023-03-11T05:49:40.939Z,1013.14
2023-03-11T05:50:13.372Z,1013.14
2023-03-11T05:50:45.407Z,1013.04
2023-03-11T05:51:16.967Z,1013.04
2023-03-11T05:51:50.070Z,1013.04
2023-03-11T05:52:11.973Z,1012.93
2023-03-11T05:52:34.306Z,1012.93
2023-03-11T05:53:08.871Z,1012.93
2023-03-11T05:53:40.943Z,1013.14
2023-03-11T05:54:12.970Z,1013.14
2023-03-11T05:54:45.026Z,1013.14
2023-03-11T05:55:17.417Z,1013.14
2023-03-11T05:55:51.138Z,1013.41
2023-03-11T05:56:12.340Z,1013.14
2023-03-11T05:56:34.585Z,1013.14
2023-03-11T05:57:09.171Z,1013.14
2023-03-11T05:57:41.530Z,1013.04
2023-03-11T05:58:13.572Z,1013.04
2023-03-11T05:58:45.522Z,1013.14
2023-03-11T05:59:17.575Z,1013.14
2023-03-11T05:59:51.614Z,1013.24
2023-03-11T06:00:12.017Z,1012.93
2023-03-11T06:00:34.136Z,1012.93
2023-03-11T06:01:18.134Z,1013.24
2023-03-11T06:01:41.931Z,1013.24
2023-03-11T06:02:14.294Z,1013.24
2023-03-11T06:02:45.799Z,1013.14
2023-03-11T06:03:17.889Z,1013.14
2023-03-11T06:03:52.518Z,1013.34
2023-03-11T06:04:12.477Z,1013.14
2023-03-11T06:04:35.261Z,1013.14
2023-03-11T06:05:12.164Z,1013.14
2023-03-11T06:05:42.365Z,1013.04
2023-03-11T06:06:14.769Z,1013.04
2023-03-11T06:06:47.809Z,1013.24
2023-03-11T06:07:18.697Z,1013.24
2023-03-11T06:07:53.060Z,1013.34